PWSweather.com
Personal Weather Stations
Station Observations
RHPWSHOR1
Lostock, BoltonGB

LostockBoltonGB

Lat: 53.58073044, Lon: -2.52344131

Elevation: 389

Station Type: Oregon Scientific WMR100

Latest ConditionsUpdated 11:53:28 AM GMT Saturday, Oct 1, 2016
Currently Today's Max Today's Min Today's Average
Temperature 56.1°F13.4°C 56.8°F13.8°C 47.3°F8.5°C 50.0°F10.0°C
Dew Point 37.2°F2.9°C 43.6°F6.4°C 36.7°F2.6°C 41.2°F5.1°C
Winds 3.1 mph ENE5.0 kmh ENE 3.8 mph ESE6.1 kmh ESE - 0.7 mph 1.1 kmh
Wind Gusts 3.1 mph5.0 kmh 3.8 mph6.1 kmh - -
Humidity 49% 82% 47% 72%
Pressure 29.09 in985.1 mb 29.14 in986.8 mb 29.06 in984.1 mb -
Hour Temp Dew Point Humidity Winds Wind Gusts Pressure Precip Precip Rate Daily Precip Total
11:53 AM 56.1°F13.4°C 37.2°F2.9°C 49% 3.1 mph ENE5.0 kmh ENE 3.1 mph5.0 kmh 29.09 in985.1 mb 0.00 in0.0 mm 0.00 in0.0 mm 0.00 in0.0 mm
11:05 AM 56.7°F13.7°C 36.7°F2.6°C 47% 2.7 mph ENE4.3 kmh ENE 2.7 mph4.3 kmh 29.09 in985.1 mb 0.00 in0.0 mm 0.00 in0.0 mm 0.00 in0.0 mm
10:57 AM 56.8°F13.8°C 36.8°F2.7°C 47% 1.3 mph WSW2.1 kmh WSW 1.3 mph2.1 kmh 29.09 in985.1 mb 0.00 in0.0 mm 0.00 in0.0 mm 0.00 in0.0 mm
09:56 AM 55.8°F13.2°C 37.4°F3.0°C 50% 1.6 mph ESE2.6 kmh ESE 1.6 mph2.6 kmh 29.09 in985.1 mb 0.00 in0.0 mm 0.00 in0.0 mm 0.00 in0.0 mm
09:49 AM 55.8°F13.2°C 37.4°F3.0°C 50% 1.6 mph NW2.6 kmh NW 1.6 mph2.6 kmh 29.09 in985.1 mb 0.00 in0.0 mm 0.00 in0.0 mm 0.00 in0.0 mm
09:42 AM 55.8°F13.2°C 37.9°F3.3°C 51% 0.9 mph NNW1.4 kmh NNW 1.3 mph2.1 kmh 29.09 in985.1 mb 0.00 in0.0 mm 0.00 in0.0 mm 0.00 in0.0 mm
09:34 AM 55.9°F13.3°C 39.6°F4.2°C 54% 2.0 mph ESE3.2 kmh ESE 2.0 mph3.2 kmh 29.09 in985.1 mb 0.00 in0.0 mm 0.00 in0.0 mm 0.00 in0.0 mm
09:28 AM 55.6°F13.1°C 39.7°F4.3°C 55% 1.6 mph NNE2.6 kmh NNE 2.5 mph4.0 kmh 29.09 in985.1 mb 0.00 in0.0 mm 0.00 in0.0 mm 0.00 in0.0 mm
09:21 AM 54.9°F12.7°C 39.5°F4.2°C 56% 1.1 mph SE1.8 kmh SE 1.3 mph2.1 kmh 29.09 in985.1 mb 0.00 in0.0 mm 0.00 in0.0 mm 0.00 in0.0 mm
09:14 AM 54.7°F12.6°C 39.8°F4.3°C 57% 2.7 mph WNW4.3 kmh WNW 2.7 mph4.3 kmh 29.09 in985.1 mb 0.00 in0.0 mm 0.00 in0.0 mm 0.00 in0.0 mm
09:07 AM 54.3°F12.4°C 39.4°F4.1°C 57% 2.0 mph WSW3.2 kmh WSW 2.0 mph3.2 kmh 29.09 in985.1 mb 0.00 in0.0 mm 0.00 in0.0 mm 0.00 in0.0 mm
09:00 AM 54.3°F12.4°C 39.9°F4.4°C 58% 1.1 mph ENE1.8 kmh ENE 1.1 mph1.8 kmh 29.09 in985.1 mb 0.00 in0.0 mm 0.00 in0.0 mm 0.00 in0.0 mm
08:53 AM 54.0°F12.2°C 39.1°F3.9°C 57% 1.6 mph ENE2.6 kmh ENE 1.6 mph2.6 kmh 29.09 in985.1 mb 0.00 in0.0 mm 0.00 in0.0 mm 0.00 in0.0 mm
08:45 AM 53.6°F12.0°C 39.2°F4.0°C 58% 2.9 mph ENE4.7 kmh ENE 2.9 mph4.7 kmh 29.09 in985.1 mb 0.00 in0.0 mm 0.00 in0.0 mm 0.00 in0.0 mm
08:39 AM 53.4°F11.9°C 39.0°F3.9°C 58% 2.7 mph WSW4.3 kmh WSW 2.7 mph4.3 kmh 29.09 in985.1 mb 0.00 in0.0 mm 0.00 in0.0 mm 0.00 in0.0 mm
08:32 AM 53.4°F11.9°C 39.5°F4.2°C 59% 2.5 mph ENE4.0 kmh ENE 2.5 mph4.0 kmh 29.06 in984.1 mb 0.00 in0.0 mm 0.00 in0.0 mm 0.00 in0.0 mm
08:25 AM 53.6°F12.0°C 40.9°F4.9°C 62% 1.3 mph WNW2.1 kmh WNW 1.3 mph2.1 kmh 29.06 in984.1 mb 0.00 in0.0 mm 0.00 in0.0 mm 0.00 in0.0 mm
08:18 AM 53.6°F12.0°C 41.3°F5.2°C 63% 1.3 mph SSE2.1 kmh SSE 1.6 mph2.6 kmh 29.09 in985.1 mb 0.00 in0.0 mm 0.00 in0.0 mm 0.00 in0.0 mm
08:11 AM 53.4°F11.9°C 41.6°F5.3°C 64% 2.2 mph WSW3.5 kmh WSW 2.5 mph4.0 kmh 29.09 in985.1 mb 0.00 in0.0 mm 0.00 in0.0 mm 0.00 in0.0 mm
08:04 AM 52.9°F11.6°C 41.1°F5.1°C 64% 2.2 mph ENE3.5 kmh ENE 2.2 mph3.5 kmh 29.06 in984.1 mb 0.00 in0.0 mm 0.00 in0.0 mm 0.00 in0.0 mm
07:57 AM 52.5°F11.4°C 41.1°F5.1°C 65% 3.4 mph E5.5 kmh E 3.4 mph5.5 kmh 29.06 in984.1 mb 0.00 in0.0 mm 0.00 in0.0 mm 0.00 in0.0 mm
07:50 AM 52.2°F11.2°C 41.6°F5.3°C 67% 3.8 mph ESE6.1 kmh ESE 3.8 mph6.1 kmh 29.06 in984.1 mb 0.00 in0.0 mm 0.00 in0.0 mm 0.00 in0.0 mm
07:43 AM 51.6°F10.9°C 41.8°F5.4°C 69% 1.6 mph SE2.6 kmh SE 3.6 mph5.8 kmh 29.06 in984.1 mb 0.00 in0.0 mm 0.00 in0.0 mm 0.00 in0.0 mm
07:36 AM 51.3°F10.7°C 41.8°F5.4°C 70% 2.0 mph E3.2 kmh E 2.9 mph4.7 kmh 29.06 in984.1 mb 0.00 in0.0 mm 0.00 in0.0 mm 0.00 in0.0 mm
07:28 AM 50.9°F10.5°C 42.2°F5.7°C 72% 2.7 mph ESE4.3 kmh ESE 2.9 mph4.7 kmh 29.06 in984.1 mb 0.00 in0.0 mm 0.00 in0.0 mm 0.00 in0.0 mm
07:22 AM 50.5°F10.3°C 41.9°F5.5°C 72% 1.1 mph ESE1.8 kmh ESE 1.3 mph2.1 kmh 29.06 in984.1 mb 0.00 in0.0 mm 0.00 in0.0 mm 0.00 in0.0 mm
07:15 AM 50.5°F10.3°C 42.9°F6.1°C 75% 2.0 mph SE3.2 kmh SE 2.0 mph3.2 kmh 29.06 in984.1 mb 0.00 in0.0 mm 0.00 in0.0 mm 0.00 in0.0 mm
07:07 AM 50.4°F10.2°C 43.1°F6.2°C 76% 1.3 mph E2.1 kmh E 3.1 mph5.0 kmh 29.06 in984.1 mb 0.00 in0.0 mm 0.00 in0.0 mm 0.00 in0.0 mm
07:01 AM 50.2°F10.1°C 42.9°F6.1°C 76% 0.9 mph SSW1.4 kmh SSW 2.0 mph3.2 kmh 29.06 in984.1 mb 0.00 in0.0 mm 0.00 in0.0 mm 0.00 in0.0 mm
06:54 AM 49.8°F9.9°C 43.6°F6.4°C 79% 2.5 mph NNE4.0 kmh NNE 2.5 mph4.0 kmh 29.06 in984.1 mb 0.00 in0.0 mm 0.00 in0.0 mm 0.00 in0.0 mm
06:47 AM 49.3°F9.6°C 43.4°F6.3°C 80% Calm Calm -- 29.09 in985.1 mb 0.00 in0.0 mm 0.00 in0.0 mm 0.00 in0.0 mm
06:40 AM 49.3°F9.6°C 43.4°F6.3°C 80% Calm Calm -- 29.09 in985.1 mb 0.00 in0.0 mm 0.00 in0.0 mm 0.00 in0.0 mm
06:32 AM 49.1°F9.5°C 43.5°F6.4°C 81% Calm Calm -- 29.06 in984.1 mb 0.00 in0.0 mm 0.00 in0.0 mm 0.00 in0.0 mm
06:26 AM 48.9°F9.4°C 43.4°F6.3°C 81% Calm Calm -- 29.06 in984.1 mb 0.00 in0.0 mm 0.00 in0.0 mm 0.00 in0.0 mm
06:18 AM 48.9°F9.4°C 43.4°F6.3°C 81% Calm Calm -- 29.06 in984.1 mb 0.00 in0.0 mm 0.00 in0.0 mm 0.00 in0.0 mm
06:11 AM 48.7°F9.3°C 43.5°F6.4°C 82% Calm Calm -- 29.06 in984.1 mb 0.00 in0.0 mm 0.00 in0.0 mm 0.00 in0.0 mm
06:04 AM 48.7°F9.3°C 43.2°F6.2°C 81% Calm Calm -- 29.06 in984.1 mb 0.00 in0.0 mm 0.00 in0.0 mm 0.00 in0.0 mm
05:58 AM 48.7°F9.3°C 43.5°F6.4°C 82% Calm Calm -- 29.06 in984.1 mb 0.00 in0.0 mm 0.00 in0.0 mm 0.00 in0.0 mm
05:51 AM 48.7°F9.3°C 43.5°F6.4°C 82% Calm Calm -- 29.06 in984.1 mb 0.00 in0.0 mm 0.00 in0.0 mm 0.00 in0.0 mm
05:44 AM 48.6°F9.2°C 43.3°F6.3°C 82% Calm Calm -- 29.06 in984.1 mb 0.00 in0.0 mm 0.00 in0.0 mm 0.00 in0.0 mm
05:37 AM 48.4°F9.1°C 42.8°F6.0°C 81% Calm Calm -- 29.06 in984.1 mb 0.00 in0.0 mm 0.00 in0.0 mm 0.00 in0.0 mm
05:30 AM 48.4°F9.1°C 42.8°F6.0°C 81% Calm Calm -- 29.06 in984.1 mb 0.00 in0.0 mm 0.00 in0.0 mm 0.00 in0.0 mm
05:23 AM 48.2°F9.0°C 43.0°F6.1°C 82% Calm Calm -- 29.06 in984.1 mb 0.00 in0.0 mm 0.00 in0.0 mm 0.00 in0.0 mm
05:16 AM 48.2°F9.0°C 42.7°F5.9°C 81% Calm Calm -- 29.09 in985.1 mb 0.00 in0.0 mm 0.00 in0.0 mm 0.00 in0.0 mm
05:09 AM 48.0°F8.9°C 42.5°F5.8°C 81% Calm Calm -- 29.09 in985.1 mb 0.00 in0.0 mm 0.00 in0.0 mm 0.00 in0.0 mm
05:02 AM 48.0°F8.9°C 42.5°F5.8°C 81% Calm Calm -- 29.09 in985.1 mb 0.00 in0.0 mm 0.00 in0.0 mm 0.00 in0.0 mm
04:55 AM 47.8°F8.8°C 42.3°F5.7°C 81% Calm Calm -- 29.09 in985.1 mb 0.00 in0.0 mm 0.00 in0.0 mm 0.00 in0.0 mm
04:48 AM 47.8°F8.8°C 42.3°F5.7°C 81% Calm Calm -- 29.09 in985.1 mb 0.00 in0.0 mm 0.00 in0.0 mm 0.00 in0.0 mm
04:40 AM 47.8°F8.8°C 42.3°F5.7°C 81% Calm Calm -- 29.09 in985.1 mb 0.00 in0.0 mm 0.00 in0.0 mm 0.00 in0.0 mm
04:34 AM 47.8°F8.8°C 42.3°F5.7°C 81% Calm Calm -- 29.09 in985.1 mb 0.00 in0.0 mm 0.00 in0.0 mm 0.00 in0.0 mm
04:27 AM 47.8°F8.8°C 42.0°F5.6°C 80% Calm Calm -- 29.09 in985.1 mb 0.00 in0.0 mm 0.00 in0.0 mm 0.00 in0.0 mm
04:20 AM 47.8°F8.8°C 42.3°F5.7°C 81% Calm Calm -- 29.09 in985.1 mb 0.00 in0.0 mm 0.00 in0.0 mm 0.00 in0.0 mm
04:13 AM 48.0°F8.9°C 42.8°F6.0°C 82% Calm Calm -- 29.09 in985.1 mb 0.00 in0.0 mm 0.00 in0.0 mm 0.00 in0.0 mm
04:06 AM 48.0°F8.9°C 42.8°F6.0°C 82% Calm Calm -- 29.09 in985.1 mb 0.00 in0.0 mm 0.00 in0.0 mm 0.00 in0.0 mm
03:59 AM 47.8°F8.8°C 42.0°F5.6°C 80% Calm Calm -- 29.09 in985.1 mb 0.00 in0.0 mm 0.00 in0.0 mm 0.00 in0.0 mm
03:52 AM 47.7°F8.7°C 41.5°F5.3°C 79% Calm Calm -- 29.09 in985.1 mb 0.00 in0.0 mm 0.00 in0.0 mm 0.00 in0.0 mm
03:45 AM 47.5°F8.6°C 41.3°F5.2°C 79% Calm Calm -- 29.09 in985.1 mb 0.00 in0.0 mm 0.00 in0.0 mm 0.00 in0.0 mm
03:38 AM 47.5°F8.6°C 41.3°F5.2°C 79% Calm Calm -- 29.09 in985.1 mb 0.00 in0.0 mm 0.00 in0.0 mm 0.00 in0.0 mm
03:31 AM 47.5°F8.6°C 41.0°F5.0°C 78% Calm Calm -- 29.09 in985.1 mb 0.00 in0.0 mm 0.00 in0.0 mm 0.00 in0.0 mm
03:24 AM 47.3°F8.5°C 40.8°F4.9°C 78% Calm Calm -- 29.09 in985.1 mb 0.00 in0.0 mm 0.00 in0.0 mm 0.00 in0.0 mm
03:17 AM 47.5°F8.6°C 40.6°F4.8°C 77% Calm Calm -- 29.09 in985.1 mb 0.00 in0.0 mm 0.00 in0.0 mm 0.00 in0.0 mm
03:10 AM 47.5°F8.6°C 40.6°F4.8°C 77% Calm Calm -- 29.09 in985.1 mb 0.00 in0.0 mm 0.00 in0.0 mm 0.00 in0.0 mm
03:03 AM 47.5°F8.6°C 40.6°F4.8°C 77% Calm Calm -- 29.09 in985.1 mb 0.00 in0.0 mm 0.00 in0.0 mm 0.00 in0.0 mm
02:56 AM 47.7°F8.7°C 40.8°F4.9°C 77% Calm Calm -- 29.09 in985.1 mb 0.00 in0.0 mm 0.00 in0.0 mm 0.00 in0.0 mm
02:49 AM 47.7°F8.7°C 40.8°F4.9°C 77% Calm Calm -- 29.09 in985.1 mb 0.00 in0.0 mm 0.00 in0.0 mm 0.00 in0.0 mm
02:42 AM 47.7°F8.7°C 40.5°F4.7°C 76% Calm Calm -- 29.09 in985.1 mb 0.00 in0.0 mm 0.00 in0.0 mm 0.00 in0.0 mm
02:35 AM 47.8°F8.8°C 40.7°F4.8°C 76% Calm Calm -- 29.09 in985.1 mb 0.00 in0.0 mm 0.00 in0.0 mm 0.00 in0.0 mm
02:28 AM 48.0°F8.9°C 40.8°F4.9°C 76% Calm Calm -- 29.09 in985.1 mb 0.00 in0.0 mm 0.00 in0.0 mm 0.00 in0.0 mm
02:21 AM 48.0°F8.9°C 40.8°F4.9°C 76% Calm Calm -- 29.12 in986.1 mb 0.00 in0.0 mm 0.00 in0.0 mm 0.00 in0.0 mm
02:14 AM 48.0°F8.9°C 40.8°F4.9°C 76% Calm Calm -- 29.12 in986.1 mb 0.00 in0.0 mm 0.00 in0.0 mm 0.00 in0.0 mm
02:07 AM 48.0°F8.9°C 40.8°F4.9°C 76% Calm Calm -- 29.12 in986.1 mb 0.00 in0.0 mm 0.00 in0.0 mm 0.00 in0.0 mm
02:00 AM 48.2°F9.0°C 41.0°F5.0°C 76% Calm Calm -- 29.12 in986.1 mb 0.00 in0.0 mm 0.00 in0.0 mm 0.00 in0.0 mm
01:53 AM 48.2°F9.0°C 40.7°F4.8°C 75% 1.3 mph WNW2.1 kmh WNW 2.0 mph3.2 kmh 29.12 in986.1 mb 0.00 in0.0 mm 0.00 in0.0 mm 0.00 in0.0 mm
01:46 AM 48.2°F9.0°C 40.7°F4.8°C 75% Calm Calm 0.9 mph1.4 kmh 29.12 in986.1 mb 0.00 in0.0 mm 0.00 in0.0 mm 0.00 in0.0 mm
01:39 AM 48.2°F9.0°C 40.7°F4.8°C 75% Calm Calm -- 29.12 in986.1 mb 0.00 in0.0 mm 0.00 in0.0 mm 0.00 in0.0 mm
01:32 AM 48.4°F9.1°C 40.5°F4.7°C 74% Calm Calm -- 29.12 in986.1 mb 0.00 in0.0 mm 0.00 in0.0 mm 0.00 in0.0 mm
01:25 AM 48.4°F9.1°C 40.5°F4.7°C 74% Calm Calm -- 29.12 in986.1 mb 0.00 in0.0 mm 0.00 in0.0 mm 0.00 in0.0 mm
01:18 AM 48.6°F9.2°C 40.7°F4.8°C 74% 0.9 mph WNW1.4 kmh WNW 0.9 mph1.4 kmh 29.12 in986.1 mb 0.00 in0.0 mm 0.00 in0.0 mm 0.00 in0.0 mm
01:11 AM 48.7°F9.3°C 40.8°F4.9°C 74% Calm Calm 1.1 mph1.8 kmh 29.12 in986.1 mb 0.00 in0.0 mm 0.00 in0.0 mm 0.00 in0.0 mm
01:04 AM 48.9°F9.4°C 41.0°F5.0°C 74% Calm Calm -- 29.12 in986.1 mb 0.00 in0.0 mm 0.00 in0.0 mm 0.00 in0.0 mm
12:57 AM 48.9°F9.4°C 41.0°F5.0°C 74% Calm Calm -- 29.12 in986.1 mb 0.00 in0.0 mm 0.00 in0.0 mm 0.00 in0.0 mm
12:50 AM 49.1°F9.5°C 41.2°F5.1°C 74% Calm Calm -- 29.12 in986.1 mb 0.00 in0.0 mm 0.00 in0.0 mm 0.00 in0.0 mm
12:43 AM 49.1°F9.5°C 41.2°F5.1°C 74% Calm Calm -- 29.12 in986.1 mb 0.00 in0.0 mm 0.00 in0.0 mm 0.00 in0.0 mm
12:36 AM 49.1°F9.5°C 41.2°F5.1°C 74% Calm Calm 1.6 mph2.6 kmh 29.14 in986.8 mb 0.00 in0.0 mm 0.00 in0.0 mm 0.00 in0.0 mm
12:29 AM 49.1°F9.5°C 41.2°F5.1°C 74% 0.9 mph WNW1.4 kmh WNW 0.9 mph1.4 kmh 29.14 in986.8 mb 0.00 in0.0 mm 0.00 in0.0 mm 0.00 in0.0 mm
12:22 AM 49.1°F9.5°C 41.2°F5.1°C 74% 1.1 mph SW1.8 kmh SW 1.6 mph2.6 kmh 29.14 in986.8 mb 0.00 in0.0 mm 0.00 in0.0 mm 0.00 in0.0 mm
12:15 AM 48.9°F9.4°C 40.7°F4.8°C 73% Calm Calm 0.9 mph1.4 kmh 29.14 in986.8 mb 0.00 in0.0 mm 0.00 in0.0 mm 0.00 in0.0 mm
12:08 AM 48.9°F9.4°C 40.7°F4.8°C 73% 0.9 mph SW1.4 kmh SW 0.9 mph1.4 kmh 29.14 in986.8 mb 0.00 in0.0 mm 0.00 in0.0 mm 0.00 in0.0 mm
12:01 AM 49.1°F9.5°C 40.8°F4.9°C 73% 0.9 mph WNW1.4 kmh WNW 0.9 mph1.4 kmh 29.14 in986.8 mb 0.00 in0.0 mm 0.00 in0.0 mm 0.00 in0.0 mm